sensor_id;sensor_type;location;lat;lon;timestamp;temperature;humidity
41220;DHT22;26951;47.338;9.196;2023-07-31T00:00:10;16.10;56.90
41220;DHT22;26951;47.338;9.196;2023-07-31T00:02:54;16.10;58.60
41220;DHT22;26951;47.338;9.196;2023-07-31T00:05:39;16.10;59.40
41220;DHT22;26951;47.338;9.196;2023-07-31T00:08:23;16.10;59.50
41220;DHT22;26951;47.338;9.196;2023-07-31T00:11:07;16.10;58.40
41220;DHT22;26951;47.338;9.196;2023-07-31T00:13:53;16.10;58.60
41220;DHT22;26951;47.338;9.196;2023-07-31T00:16:37;16.00;59.00
41220;DHT22;26951;47.338;9.196;2023-07-31T00:19:21;16.00;59.10
41220;DHT22;26951;47.338;9.196;2023-07-31T00:22:05;16.00;59.10
41220;DHT22;26951;47.338;9.196;2023-07-31T00:24:49;16.00;58.90
41220;DHT22;26951;47.338;9.196;2023-07-31T00:27:34;16.00;59.00
41220;DHT22;26951;47.338;9.196;2023-07-31T00:30:18;15.90;58.70
41220;DHT22;26951;47.338;9.196;2023-07-31T00:33:02;15.90;58.80
41220;DHT22;26951;47.338;9.196;2023-07-31T00:35:48;15.90;58.50
41220;DHT22;26951;47.338;9.196;2023-07-31T00:38:32;15.90;58.70
41220;DHT22;26951;47.338;9.196;2023-07-31T00:41:16;15.90;59.20
41220;DHT22;26951;47.338;9.196;2023-07-31T00:44:00;15.90;58.40
41220;DHT22;26951;47.338;9.196;2023-07-31T00:46:44;15.90;58.40
41220;DHT22;26951;47.338;9.196;2023-07-31T00:49:28;15.80;58.30
41220;DHT22;26951;47.338;9.196;2023-07-31T00:52:13;15.80;58.10
41220;DHT22;26951;47.338;9.196;2023-07-31T00:54:57;15.70;58.80
41220;DHT22;26951;47.338;9.196;2023-07-31T00:57:41;15.70;60.10
41220;DHT22;26951;47.338;9.196;2023-07-31T01:04:09;15.70;59.60
41220;DHT22;26951;47.338;9.196;2023-07-31T01:07:17;15.80;61.30
41220;DHT22;26951;47.338;9.196;2023-07-31T01:10:21;15.80;61.00
41220;DHT22;26951;47.338;9.196;2023-07-31T01:13:06;15.80;60.70
41220;DHT22;26951;47.338;9.196;2023-07-31T01:15:50;15.70;60.00
41220;DHT22;26951;47.338;9.196;2023-07-31T01:18:34;15.70;59.70
41220;DHT22;26951;47.338;9.196;2023-07-31T01:21:50;15.70;59.60
41220;DHT22;26951;47.338;9.196;2023-07-31T01:24:55;15.60;59.50
41220;DHT22;26951;47.338;9.196;2023-07-31T01:27:48;15.70;59.90
41220;DHT22;26951;47.338;9.196;2023-07-31T01:30:37;15.70;61.00
41220;DHT22;26951;47.338;9.196;2023-07-31T01:33:25;15.70;61.00
41220;DHT22;26951;47.338;9.196;2023-07-31T01:36:10;15.70;60.90
41220;DHT22;26951;47.338;9.196;2023-07-31T01:38:59;15.70;61.00
41220;DHT22;26951;47.338;9.196;2023-07-31T01:41:44;15.70;61.00
41220;DHT22;26951;47.338;9.196;2023-07-31T01:44:28;15.70;62.70
41220;DHT22;26951;47.338;9.196;2023-07-31T01:47:12;15.70;61.90
41220;DHT22;26951;47.338;9.196;2023-07-31T01:49:56;15.70;61.60
41220;DHT22;26951;47.338;9.196;2023-07-31T01:52:41;15.70;61.10
41220;DHT22;26951;47.338;9.196;2023-07-31T01:55:25;15.70;61.20
41220;DHT22;26951;47.338;9.196;2023-07-31T01:58:09;15.70;61.00
41220;DHT22;26951;47.338;9.196;2023-07-31T02:00:54;15.60;60.40
41220;DHT22;26951;47.338;9.196;2023-07-31T02:03:38;15.60;59.80
41220;DHT22;26951;47.338;9.196;2023-07-31T02:06:22;15.60;60.00
41220;DHT22;26951;47.338;9.196;2023-07-31T02:09:06;15.60;60.60
41220;DHT22;26951;47.338;9.196;2023-07-31T02:11:50;15.60;59.70
41220;DHT22;26951;47.338;9.196;2023-07-31T02:14:34;15.50;59.50
41220;DHT22;26951;47.338;9.196;2023-07-31T02:17:19;15.40;58.90
41220;DHT22;26951;47.338;9.196;2023-07-31T02:20:03;15.40;58.30
41220;DHT22;26951;47.338;9.196;2023-07-31T02:22:48;15.40;58.30
41220;DHT22;26951;47.338;9.196;2023-07-31T02:25:32;15.30;58.10
41220;DHT22;26951;47.338;9.196;2023-07-31T02:28:16;15.20;57.20
41220;DHT22;26951;47.338;9.196;2023-07-31T02:31:00;15.20;57.00
41220;DHT22;26951;47.338;9.196;2023-07-31T02:33:45;15.10;56.50
41220;DHT22;26951;47.338;9.196;2023-07-31T02:36:29;15.00;56.00
41220;DHT22;26951;47.338;9.196;2023-07-31T02:39:13;14.90;55.60
41220;DHT22;26951;47.338;9.196;2023-07-31T02:41:57;14.80;55.50
41220;DHT22;26951;47.338;9.196;2023-07-31T02:44:41;14.70;55.30
41220;DHT22;26951;47.338;9.196;2023-07-31T02:47:26;14.60;55.10
41220;DHT22;26951;47.338;9.196;2023-07-31T02:50:10;14.50;55.20
41220;DHT22;26951;47.338;9.196;2023-07-31T02:52:54;14.30;55.50
41220;DHT22;26951;47.338;9.196;2023-07-31T02:55:38;14.20;56.00
41220;DHT22;26951;47.338;9.196;2023-07-31T02:58:23;14.10;56.80
41220;DHT22;26951;47.338;9.196;2023-07-31T03:01:07;14.00;56.30
41220;DHT22;26951;47.338;9.196;2023-07-31T03:03:51;13.90;56.40
41220;DHT22;26951;47.338;9.196;2023-07-31T03:06:35;13.90;56.70
41220;DHT22;26951;47.338;9.196;2023-07-31T03:09:19;13.80;57.10
41220;DHT22;26951;47.338;9.196;2023-07-31T03:12:03;13.70;57.20
41220;DHT22;26951;47.338;9.196;2023-07-31T03:14:47;13.70;57.50
41220;DHT22;26951;47.338;9.196;2023-07-31T03:17:31;13.70;57.30
41220;DHT22;26951;47.338;9.196;2023-07-31T03:20:15;13.70;56.50
41220;DHT22;26951;47.338;9.196;2023-07-31T03:23:00;13.60;55.80
41220;DHT22;26951;47.338;9.196;2023-07-31T03:25:57;13.60;55.80
41220;DHT22;26951;47.338;9.196;2023-07-31T03:28:42;13.50;56.20
41220;DHT22;26951;47.338;9.196;2023-07-31T03:31:26;13.40;56.80
41220;DHT22;26951;47.338;9.196;2023-07-31T03:34:10;13.30;57.00
41220;DHT22;26951;47.338;9.196;2023-07-31T03:36:54;13.20;57.80
41220;DHT22;26951;47.338;9.196;2023-07-31T03:39:39;13.20;58.00
41220;DHT22;26951;47.338;9.196;2023-07-31T03:42:23;13.10;57.20
41220;DHT22;26951;47.338;9.196;2023-07-31T03:45:07;13.10;57.70
41220;DHT22;26951;47.338;9.196;2023-07-31T03:47:52;13.00;58.30
41220;DHT22;26951;47.338;9.196;2023-07-31T03:50:36;13.00;58.40
41220;DHT22;26951;47.338;9.196;2023-07-31T03:53:20;13.00;58.20
41220;DHT22;26951;47.338;9.196;2023-07-31T03:56:04;13.00;57.30
41220;DHT22;26951;47.338;9.196;2023-07-31T03:58:48;13.00;57.90
41220;DHT22;26951;47.338;9.196;2023-07-31T04:01:33;12.90;57.70
41220;DHT22;26951;47.338;9.196;2023-07-31T04:04:16;12.90;58.10
41220;DHT22;26951;47.338;9.196;2023-07-31T04:07:01;12.90;58.40
41220;DHT22;26951;47.338;9.196;2023-07-31T04:09:45;12.80;58.00
41220;DHT22;26951;47.338;9.196;2023-07-31T04:12:29;12.80;59.10
41220;DHT22;26951;47.338;9.196;2023-07-31T04:15:13;12.80;59.40
41220;DHT22;26951;47.338;9.196;2023-07-31T04:17:57;12.80;60.60
41220;DHT22;26951;47.338;9.196;2023-07-31T04:20:41;12.80;60.30
41220;DHT22;26951;47.338;9.196;2023-07-31T04:23:25;12.80;61.40
41220;DHT22;26951;47.338;9.196;2023-07-31T04:26:10;12.80;62.60
41220;DHT22;26951;47.338;9.196;2023-07-31T04:28:54;12.90;62.90
41220;DHT22;26951;47.338;9.196;2023-07-31T04:31:38;12.90;62.90
41220;DHT22;26951;47.338;9.196;2023-07-31T04:34:22;12.90;63.30
41220;DHT22;26951;47.338;9.196;2023-07-31T04:37:06;13.00;64.20
41220;DHT22;26951;47.338;9.196;2023-07-31T04:39:50;13.00;65.50
41220;DHT22;26951;47.338;9.196;2023-07-31T04:42:34;13.10;66.20
41220;DHT22;26951;47.338;9.196;2023-07-31T04:45:18;13.10;67.20
41220;DHT22;26951;47.338;9.196;2023-07-31T04:48:03;13.20;68.30
41220;DHT22;26951;47.338;9.196;2023-07-31T04:50:47;13.20;67.80
41220;DHT22;26951;47.338;9.196;2023-07-31T04:53:31;13.30;67.50
41220;DHT22;26951;47.338;9.196;2023-07-31T04:56:16;13.30;67.10
41220;DHT22;26951;47.338;9.196;2023-07-31T04:59:00;13.40;66.80
41220;DHT22;26951;47.338;9.196;2023-07-31T05:01:44;13.40;66.80
41220;DHT22;26951;47.338;9.196;2023-07-31T05:04:31;13.50;67.30
41220;DHT22;26951;47.338;9.196;2023-07-31T05:07:15;13.60;67.00
41220;DHT22;26951;47.338;9.196;2023-07-31T05:10:00;13.70;67.30
41220;DHT22;26951;47.338;9.196;2023-07-31T05:12:45;13.80;68.20
41220;DHT22;26951;47.338;9.196;2023-07-31T05:15:29;13.90;69.00
41220;DHT22;26951;47.338;9.196;2023-07-31T05:18:13;14.00;68.20
41220;DHT22;26951;47.338;9.196;2023-07-31T05:20:57;14.10;68.30
41220;DHT22;26951;47.338;9.196;2023-07-31T05:23:41;14.20;67.90
41220;DHT22;26951;47.338;9.196;2023-07-31T05:26:25;14.20;67.70
41220;DHT22;26951;47.338;9.196;2023-07-31T05:29:09;14.30;67.40
41220;DHT22;26951;47.338;9.196;2023-07-31T05:31:53;14.40;66.70
41220;DHT22;26951;47.338;9.196;2023-07-31T05:34:37;14.40;66.40
41220;DHT22;26951;47.338;9.196;2023-07-31T05:37:22;14.50;66.60
41220;DHT22;26951;47.338;9.196;2023-07-31T05:40:06;14.60;66.90
41220;DHT22;26951;47.338;9.196;2023-07-31T05:42:51;14.70;66.90
41220;DHT22;26951;47.338;9.196;2023-07-31T05:45:35;14.80;67.00
41220;DHT22;26951;47.338;9.196;2023-07-31T05:48:19;14.80;67.30
41220;DHT22;26951;47.338;9.196;2023-07-31T05:51:04;14.90;66.50
41220;DHT22;26951;47.338;9.196;2023-07-31T05:53:48;15.00;65.90
41220;DHT22;26951;47.338;9.196;2023-07-31T05:56:32;15.10;65.60
41220;DHT22;26951;47.338;9.196;2023-07-31T05:59:17;15.20;65.10
41220;DHT22;26951;47.338;9.196;2023-07-31T06:02:02;15.30;64.70
41220;DHT22;26951;47.338;9.196;2023-07-31T06:04:46;15.40;64.50
41220;DHT22;26951;47.338;9.196;2023-07-31T06:07:31;15.40;63.60
41220;DHT22;26951;47.338;9.196;2023-07-31T06:10:15;15.60;64.00
41220;DHT22;26951;47.338;9.196;2023-07-31T06:12:59;15.70;66.10
41220;DHT22;26951;47.338;9.196;2023-07-31T06:15:43;15.90;64.10
41220;DHT22;26951;47.338;9.196;2023-07-31T06:18:27;16.00;61.00
41220;DHT22;26951;47.338;9.196;2023-07-31T06:21:11;16.00;60.90
41220;DHT22;26951;47.338;9.196;2023-07-31T06:23:55;16.10;61.40
41220;DHT22;26951;47.338;9.196;2023-07-31T06:26:40;16.10;61.40
41220;DHT22;26951;47.338;9.196;2023-07-31T06:29:24;16.20;58.00
41220;DHT22;26951;47.338;9.196;2023-07-31T06:32:08;16.30;58.90
41220;DHT22;26951;47.338;9.196;2023-07-31T06:34:52;16.40;58.00
41220;DHT22;26951;47.338;9.196;2023-07-31T06:37:36;16.40;56.20
41220;DHT22;26951;47.338;9.196;2023-07-31T06:40:22;16.50;56.50
41220;DHT22;26951;47.338;9.196;2023-07-31T06:43:06;16.50;56.40
41220;DHT22;26951;47.338;9.196;2023-07-31T06:45:53;16.50;56.00
41220;DHT22;26951;47.338;9.196;2023-07-31T06:48:37;16.50;54.90
41220;DHT22;26951;47.338;9.196;2023-07-31T06:51:21;16.50;53.70
41220;DHT22;26951;47.338;9.196;2023-07-31T06:54:05;16.60;54.60
41220;DHT22;26951;47.338;9.196;2023-07-31T06:56:50;16.60;54.70
41220;DHT22;26951;47.338;9.196;2023-07-31T06:59:34;16.60;53.10
41220;DHT22;26951;47.338;9.196;2023-07-31T07:02:18;16.60;53.50
41220;DHT22;26951;47.338;9.196;2023-07-31T07:05:02;16.70;53.60
41220;DHT22;26951;47.338;9.196;2023-07-31T07:07:46;16.70;52.70
41220;DHT22;26951;47.338;9.196;2023-07-31T07:10:30;16.80;51.60
41220;DHT22;26951;47.338;9.196;2023-07-31T07:13:14;16.90;50.00
41220;DHT22;26951;47.338;9.196;2023-07-31T07:15:59;16.90;49.50
41220;DHT22;26951;47.338;9.196;2023-07-31T07:18:43;17.00;48.50
41220;DHT22;26951;47.338;9.196;2023-07-31T07:21:27;17.10;49.00
41220;DHT22;26951;47.338;9.196;2023-07-31T07:24:11;17.20;51.00
41220;DHT22;26951;47.338;9.196;2023-07-31T07:26:55;17.30;48.10
41220;DHT22;26951;47.338;9.196;2023-07-31T07:29:40;17.40;48.70
41220;DHT22;26951;47.338;9.196;2023-07-31T07:32:24;17.50;50.20
41220;DHT22;26951;47.338;9.196;2023-07-31T07:35:08;17.70;50.40
41220;DHT22;26951;47.338;9.196;2023-07-31T07:37:52;17.70;49.50
41220;DHT22;26951;47.338;9.196;2023-07-31T07:40:40;17.80;47.70
41220;DHT22;26951;47.338;9.196;2023-07-31T07:43:24;17.90;47.30
41220;DHT22;26951;47.338;9.196;2023-07-31T07:46:09;18.00;48.70
41220;DHT22;26951;47.338;9.196;2023-07-31T07:48:53;18.10;48.10
41220;DHT22;26951;47.338;9.196;2023-07-31T07:51:37;18.30;46.80
41220;DHT22;26951;47.338;9.196;2023-07-31T07:54:21;18.50;51.80
41220;DHT22;26951;47.338;9.196;2023-07-31T07:57:05;18.80;51.80
41220;DHT22;26951;47.338;9.196;2023-07-31T07:59:49;19.10;47.20
41220;DHT22;26951;47.338;9.196;2023-07-31T08:02:34;19.50;54.10
41220;DHT22;26951;47.338;9.196;2023-07-31T08:05:18;19.90;48.70
41220;DHT22;26951;47.338;9.196;2023-07-31T08:08:02;20.30;46.20
41220;DHT22;26951;47.338;9.196;2023-07-31T08:10:47;20.60;45.80
41220;DHT22;26951;47.338;9.196;2023-07-31T08:13:31;21.10;46.70
41220;DHT22;26951;47.338;9.196;2023-07-31T08:16:15;21.60;48.90
41220;DHT22;26951;47.338;9.196;2023-07-31T08:18:59;21.90;41.50
41220;DHT22;26951;47.338;9.196;2023-07-31T08:21:43;22.00;37.70
41220;DHT22;26951;47.338;9.196;2023-07-31T08:24:27;22.10;41.00
41220;DHT22;26951;47.338;9.196;2023-07-31T08:27:12;22.00;39.00
41220;DHT22;26951;47.338;9.196;2023-07-31T08:29:56;21.80;41.50
41220;DHT22;26951;47.338;9.196;2023-07-31T08:32:40;21.80;39.00
41220;DHT22;26951;47.338;9.196;2023-07-31T08:35:25;21.90;37.90
41220;DHT22;26951;47.338;9.196;2023-07-31T08:38:12;22.10;43.10
41220;DHT22;26951;47.338;9.196;2023-07-31T08:40:59;22.30;41.60
41220;DHT22;26951;47.338;9.196;2023-07-31T08:43:49;22.50;42.60
41220;DHT22;26951;47.338;9.196;2023-07-31T08:46:34;22.80;37.40
41220;DHT22;26951;47.338;9.196;2023-07-31T08:49:20;22.80;39.40
41220;DHT22;26951;47.338;9.196;2023-07-31T08:52:06;22.90;39.30
41220;DHT22;26951;47.338;9.196;2023-07-31T08:54:50;23.10;38.90
41220;DHT22;26951;47.338;9.196;2023-07-31T08:57:36;23.40;38.20
41220;DHT22;26951;47.338;9.196;2023-07-31T09:00:20;23.50;39.30
41220;DHT22;26951;47.338;9.196;2023-07-31T09:03:17;23.70;40.70
41220;DHT22;26951;47.338;9.196;2023-07-31T09:06:02;24.00;37.50
41220;DHT22;26951;47.338;9.196;2023-07-31T09:08:48;24.20;36.00
41220;DHT22;26951;47.338;9.196;2023-07-31T09:11:33;24.40;39.40
41220;DHT22;26951;47.338;9.196;2023-07-31T09:14:18;24.40;36.00
41220;DHT22;26951;47.338;9.196;2023-07-31T09:17:03;24.40;35.10
41220;DHT22;26951;47.338;9.196;2023-07-31T09:19:48;24.50;35.60
41220;DHT22;26951;47.338;9.196;2023-07-31T09:22:34;24.50;30.80
41220;DHT22;26951;47.338;9.196;2023-07-31T09:28:10;24.10;32.70
41220;DHT22;26951;47.338;9.196;2023-07-31T09:30:54;23.90;32.60
41220;DHT22;26951;47.338;9.196;2023-07-31T09:33:54;23.80;31.90
41220;DHT22;26951;47.338;9.196;2023-07-31T09:36:44;23.70;31.50
41220;DHT22;26951;47.338;9.196;2023-07-31T09:39:29;23.90;32.00
41220;DHT22;26951;47.338;9.196;2023-07-31T09:42:13;24.00;34.60
41220;DHT22;26951;47.338;9.196;2023-07-31T09:45:07;24.00;33.50
41220;DHT22;26951;47.338;9.196;2023-07-31T09:47:53;23.90;32.00
41220;DHT22;26951;47.338;9.196;2023-07-31T09:50:39;23.80;33.60
41220;DHT22;26951;47.338;9.196;2023-07-31T09:53:29;23.90;34.40
41220;DHT22;26951;47.338;9.196;2023-07-31T09:56:18;23.90;34.30
41220;DHT22;26951;47.338;9.196;2023-07-31T09:59:04;24.10;33.90
41220;DHT22;26951;47.338;9.196;2023-07-31T10:01:48;24.10;37.00
41220;DHT22;26951;47.338;9.196;2023-07-31T10:04:33;24.20;35.30
41220;DHT22;26951;47.338;9.196;2023-07-31T10:07:18;24.20;30.30
41220;DHT22;26951;47.338;9.196;2023-07-31T10:10:04;24.20;33.50
41220;DHT22;26951;47.338;9.196;2023-07-31T10:12:49;24.30;32.50
41220;DHT22;26951;47.338;9.196;2023-07-31T10:15:35;24.30;33.10
41220;DHT22;26951;47.338;9.196;2023-07-31T10:18:20;24.10;32.80
41220;DHT22;26951;47.338;9.196;2023-07-31T10:21:05;24.00;33.80
41220;DHT22;26951;47.338;9.196;2023-07-31T10:23:51;24.00;34.20
41220;DHT22;26951;47.338;9.196;2023-07-31T10:26:35;23.90;33.20
41220;DHT22;26951;47.338;9.196;2023-07-31T10:29:22;23.90;34.70
41220;DHT22;26951;47.338;9.196;2023-07-31T10:32:09;23.90;31.20
41220;DHT22;26951;47.338;9.196;2023-07-31T10:34:55;23.90;40.10
41220;DHT22;26951;47.338;9.196;2023-07-31T10:37:41;23.90;33.90
41220;DHT22;26951;47.338;9.196;2023-07-31T10:40:27;23.90;35.10
41220;DHT22;26951;47.338;9.196;2023-07-31T10:43:24;23.80;37.70
41220;DHT22;26951;47.338;9.196;2023-07-31T10:46:12;23.90;36.90
41220;DHT22;26951;47.338;9.196;2023-07-31T10:49:01;24.00;37.80
41220;DHT22;26951;47.338;9.196;2023-07-31T10:51:47;24.00;37.70
41220;DHT22;26951;47.338;9.196;2023-07-31T10:54:33;24.00;35.40
41220;DHT22;26951;47.338;9.196;2023-07-31T10:57:22;24.10;34.30
41220;DHT22;26951;47.338;9.196;2023-07-31T11:03:09;24.20;30.90
41220;DHT22;26951;47.338;9.196;2023-07-31T11:06:01;24.00;36.00
41220;DHT22;26951;47.338;9.196;2023-07-31T11:08:50;23.90;36.30
41220;DHT22;26951;47.338;9.196;2023-07-31T11:11:34;24.10;36.70
41220;DHT22;26951;47.338;9.196;2023-07-31T11:14:18;24.40;39.00
41220;DHT22;26951;47.338;9.196;2023-07-31T11:17:07;24.60;35.10
41220;DHT22;26951;47.338;9.196;2023-07-31T11:19:51;24.80;33.70
41220;DHT22;26951;47.338;9.196;2023-07-31T11:22:35;24.90;34.10
41220;DHT22;26951;47.338;9.196;2023-07-31T11:25:20;25.00;35.80
41220;DHT22;26951;47.338;9.196;2023-07-31T11:28:12;25.00;34.80
41220;DHT22;26951;47.338;9.196;2023-07-31T11:30:56;25.00;37.10
41220;DHT22;26951;47.338;9.196;2023-07-31T11:33:40;24.80;35.50
41220;DHT22;26951;47.338;9.196;2023-07-31T11:36:24;25.00;35.90
41220;DHT22;26951;47.338;9.196;2023-07-31T11:39:09;24.80;31.50
41220;DHT22;26951;47.338;9.196;2023-07-31T11:41:59;24.80;31.40
41220;DHT22;26951;47.338;9.196;2023-07-31T11:44:43;24.70;31.20
41220;DHT22;26951;47.338;9.196;2023-07-31T11:47:33;24.70;33.80
41220;DHT22;26951;47.338;9.196;2023-07-31T11:50:20;24.70;31.20
41220;DHT22;26951;47.338;9.196;2023-07-31T11:53:07;24.70;34.40
41220;DHT22;26951;47.338;9.196;2023-07-31T11:55:53;24.90;30.40
41220;DHT22;26951;47.338;9.196;2023-07-31T11:58:39;25.20;32.30
41220;DHT22;26951;47.338;9.196;2023-07-31T12:01:23;25.40;31.40
41220;DHT22;26951;47.338;9.196;2023-07-31T12:04:08;25.50;29.20
41220;DHT22;26951;47.338;9.196;2023-07-31T12:06:55;25.60;33.30
41220;DHT22;26951;47.338;9.196;2023-07-31T12:09:51;25.70;29.20
41220;DHT22;26951;47.338;9.196;2023-07-31T12:12:35;25.70;29.40
41220;DHT22;26951;47.338;9.196;2023-07-31T12:15:19;25.80;28.30
41220;DHT22;26951;47.338;9.196;2023-07-31T12:18:06;25.80;30.00
41220;DHT22;26951;47.338;9.196;2023-07-31T12:20:58;25.90;27.50
41220;DHT22;26951;47.338;9.196;2023-07-31T12:23:44;26.00;28.50
41220;DHT22;26951;47.338;9.196;2023-07-31T12:26:34;25.90;27.90
41220;DHT22;26951;47.338;9.196;2023-07-31T12:29:18;25.90;27.20
41220;DHT22;26951;47.338;9.196;2023-07-31T12:32:02;26.00;26.60
41220;DHT22;26951;47.338;9.196;2023-07-31T12:34:47;26.20;28.10
41220;DHT22;26951;47.338;9.196;2023-07-31T12:37:32;26.30;25.50
41220;DHT22;26951;47.338;9.196;2023-07-31T12:40:17;26.30;26.80
41220;DHT22;26951;47.338;9.196;2023-07-31T12:43:01;25.90;26.20
41220;DHT22;26951;47.338;9.196;2023-07-31T12:45:47;25.50;27.60
41220;DHT22;26951;47.338;9.196;2023-07-31T12:48:31;25.50;29.70
41220;DHT22;26951;47.338;9.196;2023-07-31T12:51:16;25.50;31.10
41220;DHT22;26951;47.338;9.196;2023-07-31T12:54:00;25.50;27.80
41220;DHT22;26951;47.338;9.196;2023-07-31T12:56:44;25.70;29.20
41220;DHT22;26951;47.338;9.196;2023-07-31T12:59:29;25.70;29.30
41220;DHT22;26951;47.338;9.196;2023-07-31T13:02:13;25.70;29.10
41220;DHT22;26951;47.338;9.196;2023-07-31T13:04:58;25.70;30.30
41220;DHT22;26951;47.338;9.196;2023-07-31T13:07:42;25.90;30.20
41220;DHT22;26951;47.338;9.196;2023-07-31T13:10:27;25.80;31.30
41220;DHT22;26951;47.338;9.196;2023-07-31T13:13:12;26.10;28.30
41220;DHT22;26951;47.338;9.196;2023-07-31T13:15:57;26.00;29.70
41220;DHT22;26951;47.338;9.196;2023-07-31T13:18:41;26.00;28.20
41220;DHT22;26951;47.338;9.196;2023-07-31T13:21:25;25.90;29.20
41220;DHT22;26951;47.338;9.196;2023-07-31T13:24:09;25.90;29.50
41220;DHT22;26951;47.338;9.196;2023-07-31T13:26:56;26.10;29.10
41220;DHT22;26951;47.338;9.196;2023-07-31T13:29:41;26.20;28.30
41220;DHT22;26951;47.338;9.196;2023-07-31T13:32:25;26.10;31.30
41220;DHT22;26951;47.338;9.196;2023-07-31T13:35:10;26.20;34.20
41220;DHT22;26951;47.338;9.196;2023-07-31T13:37:55;26.30;29.20
41220;DHT22;26951;47.338;9.196;2023-07-31T13:40:40;26.40;28.30
41220;DHT22;26951;47.338;9.196;2023-07-31T13:43:24;26.40;28.50
41220;DHT22;26951;47.338;9.196;2023-07-31T13:46:08;26.30;29.80
41220;DHT22;26951;47.338;9.196;2023-07-31T13:48:54;26.10;29.10
41220;DHT22;26951;47.338;9.196;2023-07-31T13:51:39;26.10;27.70
41220;DHT22;26951;47.338;9.196;2023-07-31T13:54:24;26.10;30.00
41220;DHT22;26951;47.338;9.196;2023-07-31T13:57:09;26.20;30.60
41220;DHT22;26951;47.338;9.196;2023-07-31T13:59:54;26.20;27.70
41220;DHT22;26951;47.338;9.196;2023-07-31T14:02:38;26.20;29.90
41220;DHT22;26951;47.338;9.196;2023-07-31T14:05:22;26.00;26.50
41220;DHT22;26951;47.338;9.196;2023-07-31T14:08:06;26.00;28.10
41220;DHT22;26951;47.338;9.196;2023-07-31T14:10:51;26.00;27.10
41220;DHT22;26951;47.338;9.196;2023-07-31T14:13:35;26.00;25.60
41220;DHT22;26951;47.338;9.196;2023-07-31T14:16:19;25.80;25.90
41220;DHT22;26951;47.338;9.196;2023-07-31T14:19:03;25.60;28.60
41220;DHT22;26951;47.338;9.196;2023-07-31T14:21:47;25.30;26.20
41220;DHT22;26951;47.338;9.196;2023-07-31T14:24:31;25.20;27.90
41220;DHT22;26951;47.338;9.196;2023-07-31T14:27:16;25.10;27.60
41220;DHT22;26951;47.338;9.196;2023-07-31T14:30:00;25.10;28.70
41220;DHT22;26951;47.338;9.196;2023-07-31T14:32:44;25.10;28.50
41220;DHT22;26951;47.338;9.196;2023-07-31T14:35:28;25.00;28.40
41220;DHT22;26951;47.338;9.196;2023-07-31T14:38:12;25.10;28.50
41220;DHT22;26951;47.338;9.196;2023-07-31T14:40:57;25.20;28.40
41220;DHT22;26951;47.338;9.196;2023-07-31T14:43:41;25.10;28.50
41220;DHT22;26951;47.338;9.196;2023-07-31T14:46:25;24.90;29.30
41220;DHT22;26951;47.338;9.196;2023-07-31T14:49:09;24.60;28.80
41220;DHT22;26951;47.338;9.196;2023-07-31T14:51:54;24.40;30.00
41220;DHT22;26951;47.338;9.196;2023-07-31T14:54:38;24.40;29.20
41220;DHT22;26951;47.338;9.196;2023-07-31T14:57:22;24.30;29.80
41220;DHT22;26951;47.338;9.196;2023-07-31T15:00:07;24.10;31.00
41220;DHT22;26951;47.338;9.196;2023-07-31T15:02:51;23.90;30.10
41220;DHT22;26951;47.338;9.196;2023-07-31T15:05:35;23.90;31.40
41220;DHT22;26951;47.338;9.196;2023-07-31T15:08:19;23.90;31.10
41220;DHT22;26951;47.338;9.196;2023-07-31T15:11:03;24.00;31.20
41220;DHT22;26951;47.338;9.196;2023-07-31T15:13:48;23.90;31.50
41220;DHT22;26951;47.338;9.196;2023-07-31T15:16:32;23.90;31.70
41220;DHT22;26951;47.338;9.196;2023-07-31T15:19:16;23.90;30.30
41220;DHT22;26951;47.338;9.196;2023-07-31T15:22:01;23.70;30.40
41220;DHT22;26951;47.338;9.196;2023-07-31T15:24:45;23.60;30.50
41220;DHT22;26951;47.338;9.196;2023-07-31T15:27:30;23.60;30.30
41220;DHT22;26951;47.338;9.196;2023-07-31T15:30:14;23.50;31.90
41220;DHT22;26951;47.338;9.196;2023-07-31T15:32:58;23.20;32.60
41220;DHT22;26951;47.338;9.196;2023-07-31T15:35:43;23.30;32.60
41220;DHT22;26951;47.338;9.196;2023-07-31T15:38:27;23.30;32.80
41220;DHT22;26951;47.338;9.196;2023-07-31T15:41:11;23.30;32.40
41220;DHT22;26951;47.338;9.196;2023-07-31T15:43:55;23.30;31.50
41220;DHT22;26951;47.338;9.196;2023-07-31T15:46:39;23.30;31.10
41220;DHT22;26951;47.338;9.196;2023-07-31T15:49:23;23.40;32.30
41220;DHT22;26951;47.338;9.196;2023-07-31T15:52:07;23.30;32.90
41220;DHT22;26951;47.338;9.196;2023-07-31T15:54:51;23.20;32.40
41220;DHT22;26951;47.338;9.196;2023-07-31T15:57:35;23.20;33.50
41220;DHT22;26951;47.338;9.196;2023-07-31T16:00:19;23.30;33.60
41220;DHT22;26951;47.338;9.196;2023-07-31T16:03:03;23.40;31.40
41220;DHT22;26951;47.338;9.196;2023-07-31T16:05:48;23.30;32.20
41220;DHT22;26951;47.338;9.196;2023-07-31T16:08:32;23.20;32.00
41220;DHT22;26951;47.338;9.196;2023-07-31T16:11:16;23.20;31.60
41220;DHT22;26951;47.338;9.196;2023-07-31T16:14:00;23.20;31.40
41220;DHT22;26951;47.338;9.196;2023-07-31T16:16:46;23.10;32.10
41220;DHT22;26951;47.338;9.196;2023-07-31T16:19:31;23.00;32.40
41220;DHT22;26951;47.338;9.196;2023-07-31T16:22:15;23.00;31.20
41220;DHT22;26951;47.338;9.196;2023-07-31T16:24:59;22.90;31.50
41220;DHT22;26951;47.338;9.196;2023-07-31T16:27:44;22.80;30.70
41220;DHT22;26951;47.338;9.196;2023-07-31T16:30:28;22.70;33.10
41220;DHT22;26951;47.338;9.196;2023-07-31T16:33:12;22.70;33.10
41220;DHT22;26951;47.338;9.196;2023-07-31T16:35:56;22.70;31.60
41220;DHT22;26951;47.338;9.196;2023-07-31T16:38:40;22.70;31.60
41220;DHT22;26951;47.338;9.196;2023-07-31T16:41:24;22.60;32.10
41220;DHT22;26951;47.338;9.196;2023-07-31T16:44:08;22.60;31.70
41220;DHT22;26951;47.338;9.196;2023-07-31T16:46:53;22.60;31.70
41220;DHT22;26951;47.338;9.196;2023-07-31T16:49:37;22.70;32.80
41220;DHT22;26951;47.338;9.196;2023-07-31T16:52:21;22.70;33.10
41220;DHT22;26951;47.338;9.196;2023-07-31T16:55:05;22.70;33.40
41220;DHT22;26951;47.338;9.196;2023-07-31T16:57:50;22.70;33.00
41220;DHT22;26951;47.338;9.196;2023-07-31T17:00:34;22.70;32.80
41220;DHT22;26951;47.338;9.196;2023-07-31T17:03:18;22.70;33.00
41220;DHT22;26951;47.338;9.196;2023-07-31T17:06:02;22.60;33.30
41220;DHT22;26951;47.338;9.196;2023-07-31T17:08:46;22.60;32.10
41220;DHT22;26951;47.338;9.196;2023-07-31T17:11:30;22.50;32.90
41220;DHT22;26951;47.338;9.196;2023-07-31T17:14:14;22.50;33.70
41220;DHT22;26951;47.338;9.196;2023-07-31T17:16:59;22.40;38.00
41220;DHT22;26951;47.338;9.196;2023-07-31T17:19:43;22.40;36.60
41220;DHT22;26951;47.338;9.196;2023-07-31T17:22:27;22.30;36.80
41220;DHT22;26951;47.338;9.196;2023-07-31T17:25:11;22.30;39.20
41220;DHT22;26951;47.338;9.196;2023-07-31T17:27:55;22.40;40.60
41220;DHT22;26951;47.338;9.196;2023-07-31T17:30:39;22.30;38.70